Llano, California
Current Conditions -  °F | °C
As of 10:55 AM on Monday 20 Oct 2014 (Local Time) from KGXA Reporting Station
Clear Clear  
Wind Chill: 78°   Ceiling: Unl
Heat Index: 78°   Visibility: 10mi
Dew Point: 37°   Wind: 7mph
Humidity: 23%   Direction: 360°N
Pressure: 29.98"   Gusts: NA
Location:  34.5°N, 117.79°W
Report Text: KGXA 201755Z AUTO 36006KT 10SM CLR 26/03 A2998 RMK AO2 SLP123 T02550029 10233 20122 50005 TSNO $
Loading
Personal Weather Stations






























Interactive Weather Map
Tropical Storm Tracking
New forecast layout! Learn more

10-Day Weather Forecast

Advertisements
Track Severe Weather on mobile